Time;durP1;ratioP1;P1;durP2;ratioP2;P2;SDS_P1;SDS_P2;PMS_P1;PMS_P2;Temp;Humidity;BMP_temperature;BMP_pressure;BME280_temperature;BME280_humidity;BME280_pressure;Samples;Min_cycle;Max_cycle;Signal;HPM_P1;HPM_P2
2021/03/16 00:00:09;;;;;;;1999.90;999.90;;;19.20;73.60;;;;;;5136281;27;20224;-57
2021/03/16 00:14:19;;;;;;;1999.90;999.90;;;18.90;73.70;;;;;;5131240;27;20587;-56
2021/03/16 00:16:46;;;;;;;1999.90;999.90;;;17.90;80.40;;;;;;5131227;28;20211;-57
2021/03/16 00:19:13;;;;;;;1999.90;999.90;;;17.90;80.00;;;;;;5130943;28;20174;-56
2021/03/16 00:21:39;;;;;;;1999.90;999.90;;;17.80;80.40;;;;;;5130974;28;20171;-56
2021/03/16 00:24:07;;;;;;;1999.90;999.90;;;17.80;79.80;;;;;;5112515;28;20278;-54
2021/03/16 00:26:34;;;;;;;1999.90;999.90;;;17.90;78.80;;;;;;5131018;28;20219;-56
2021/03/16 00:29:00;;;;;;;1999.90;999.90;;;18.00;78.00;;;;;;5130950;28;20201;-55
2021/03/16 00:31:27;;;;;;;1999.90;999.90;;;18.30;79.20;;;;;;5130712;28;20179;-44
2021/03/16 00:33:54;;;;;;;1999.90;999.90;;;18.40;79.20;;;;;;5130799;28;20655;-56
2021/03/16 00:36:21;;;;;;;1999.90;999.90;;;18.40;78.60;;;;;;5130686;28;20171;-56
2021/03/16 00:38:49;;;;;;;1999.90;999.90;;;18.50;78.60;;;;;;5130701;28;20198;-53
2021/03/16 00:41:15;;;;;;;1999.90;999.90;;;18.40;78.00;;;;;;5130785;28;20163;-57
2021/03/16 00:43:42;;;;;;;1999.90;999.90;;;18.40;77.80;;;;;;5130537;28;20242;-57
2021/03/16 00:46:10;;;;;;;1999.90;999.90;;;18.50;77.50;;;;;;5130582;28;20176;-55
2021/03/16 00:48:36;;;;;;;1999.90;999.90;;;18.50;79.20;;;;;;5130736;28;20177;-51
2021/03/16 00:51:03;;;;;;;1999.90;999.90;;;18.60;75.60;;;;;;5130632;28;20155;-52
2021/03/16 00:53:30;;;;;;;1999.90;999.90;;;19.00;73.40;;;;;;5130404;28;20182;-54
2021/03/16 00:55:57;;;;;;;1999.90;999.90;;;18.50;76.70;;;;;;5130426;28;20199;-52
2021/03/16 00:58:28;;;;;;;1999.90;999.90;;;18.40;77.20;;;;;;5130319;28;20166;-56
2021/03/16 01:00:55;;;;;;;1999.90;999.90;;;18.30;77.10;;;;;;5130259;28;20159;-56
2021/03/16 01:03:23;;;;;;;1999.90;999.90;;;18.40;76.00;;;;;;5130175;28;20687;-54
2021/03/16 01:05:51;;;;;;;1999.90;999.90;;;18.80;74.20;;;;;;5130182;28;20185;-57
2021/03/16 01:08:19;;;;;;;1999.90;999.90;;;19.00;73.20;;;;;;5130180;28;20250;-56
2021/03/16 01:10:48;;;;;;;1999.90;999.90;;;19.10;73.30;;;;;;5130174;28;20246;-55
2021/03/16 01:13:16;;;;;;;1999.90;999.90;;;19.00;75.30;;;;;;5127421;28;20275;-52
2021/03/16 01:15:43;;;;;;;1999.90;999.90;;;18.80;78.10;;;;;;5116260;28;20636;-56
2021/03/16 01:18:10;;;;;;;1999.90;999.90;;;18.60;78.90;;;;;;5116244;28;20170;-40
2021/03/16 01:20:38;;;;;;;1999.90;999.90;;;18.50;78.80;;;;;;5116359;28;20171;-45
2021/03/16 01:23:05;;;;;;;1999.90;999.90;;;18.70;76.10;;;;;;5116093;28;20268;-57
2021/03/16 01:25:32;;;;;;;1999.90;999.90;;;18.70;77.60;;;;;;5116165;28;20163;-55
2021/03/16 01:27:59;;;;;;;1999.90;999.90;;;18.60;77.70;;;;;;5116111;28;20250;-56
2021/03/16 01:30:26;;;;;;;1999.90;999.90;;;18.60;76.50;;;;;;5116010;28;20617;-55
2021/03/16 01:32:54;;;;;;;1999.90;999.90;;;18.70;73.70;;;;;;5115972;28;20526;-56
2021/03/16 01:35:22;;;;;;;1999.90;999.90;;;18.80;74.10;;;;;;5115742;28;20656;-57
2021/03/16 01:37:55;;;;;;;1999.90;999.90;;;18.90;73.90;;;;;;5115879;28;20163;-55
2021/03/16 01:40:39;;;;;;;1999.90;999.90;;;19.00;73.50;;;;;;5115844;28;20621;-56
2021/03/16 01:43:12;;;;;;;1999.90;999.90;;;19.20;73.50;;;;;;5115660;28;20199;-54
2021/03/16 01:45:40;;;;;;;1999.90;999.90;;;19.10;75.60;;;;;;5097622;28;20559;-56
2021/03/16 01:48:09;;;;;;;1999.90;999.90;;;19.00;75.40;;;;;;5115673;28;20179;-48
2021/03/16 01:50:36;;;;;;;1999.90;999.90;;;18.90;75.10;;;;;;5115631;28;20170;-56
2021/03/16 01:53:03;;;;;;;1999.90;999.90;;;19.10;73.70;;;;;;5115623;28;20189;-56
2021/03/16 01:55:31;;;;;;;1999.90;999.90;;;19.10;74.70;;;;;;5115575;28;20176;-53
2021/03/16 01:57:58;;;;;;;1999.90;999.90;;;19.00;76.10;;;;;;5115554;28;20644;-53
2021/03/16 02:00:32;;;;;;;1999.90;999.90;;;18.80;79.40;;;;;;5115362;28;20592;-54
2021/03/16 02:02:59;;;;;;;1999.90;999.90;;;18.60;78.80;;;;;;5115379;28;20202;-56
2021/03/16 02:05:25;;;;;;;1999.90;999.90;;;18.60;79.10;;;;;;5115424;28;20265;-55
2021/03/16 02:08:01;;;;;;;1999.90;999.90;;;18.60;79.10;;;;;;5115201;28;20254;-53
2021/03/16 02:10:53;;;;;;;1999.90;999.90;;;18.50;80.90;;;;;;5115341;28;20167;-56
2021/03/16 02:13:31;;;;;;;1999.90;999.90;;;18.40;81.00;;;;;;5115140;28;20215;-56
2021/03/16 02:16:01;;;;;;;1999.90;999.90;;;18.50;79.80;;;;;;5115246;28;20163;-42
2021/03/16 02:18:33;;;;;;;1999.90;999.90;;;18.50;80.10;;;;;;5115148;28;20155;-55
2021/03/16 02:32:37;;;;;;;1999.90;999.90;;;18.50;80.60;;;;;;5116203;27;1690786;-54
2021/03/16 02:35:05;;;;;;;1999.90;999.90;;;18.70;80.50;;;;;;5151862;27;20205;-52
2021/03/16 02:37:37;;;;;;;1999.90;999.90;;;18.70;80.30;;;;;;5151653;27;20548;-57
2021/03/16 02:40:05;;;;;;;1999.90;999.90;;;18.60;80.00;;;;;;5151651;27;20221;-45
2021/03/16 02:42:35;;;;;;;1999.90;999.90;;;18.60;81.00;;;;;;5151664;27;20227;-57
2021/03/16 02:45:04;;;;;;;1999.90;999.90;;;18.50;82.10;;;;;;5151679;27;20666;-53
2021/03/16 02:47:31;;;;;;;1999.90;999.90;;;18.40;82.80;;;;;;5151586;27;20253;-53
2021/03/16 02:49:59;;;;;;;1999.90;999.90;;;18.40;80.80;;;;;;5151531;27;20527;-57
2021/03/16 02:52:26;;;;;;;1999.90;999.90;;;18.50;82.40;;;;;;5151451;27;20166;-56
2021/03/16 02:54:54;;;;;;;1999.90;999.90;;;18.40;83.30;;;;;;5151450;27;20162;-56
2021/03/16 02:57:22;;;;;;;1999.90;999.90;;;18.40;81.70;;;;;;5151550;27;20197;-57
2021/03/16 02:59:55;;;;;;;1999.90;999.90;;;18.40;82.70;;;;;;5132772;27;20180;-57
2021/03/16 03:02:23;;;;;;;1999.90;999.90;;;18.30;84.20;;;;;;5151469;27;20169;-57
2021/03/16 03:04:50;;;;;;;1999.90;999.90;;;18.20;84.50;;;;;;5151362;27;20627;-40
2021/03/16 03:07:19;;;;;;;1999.90;999.90;;;18.20;84.50;;;;;;5151352;27;20166;-57
2021/03/16 03:09:46;;;;;;;1999.90;999.90;;;18.30;79.90;;;;;;5151136;27;20165;-51
2021/03/16 03:12:13;;;;;;;1999.90;999.90;;;18.50;81.30;;;;;;5151098;27;20166;-46
2021/03/16 03:14:40;;;;;;;1999.90;999.90;;;18.50;79.50;;;;;;5151046;27;20222;-52
2021/03/16 03:17:07;;;;;;;1999.90;999.90;;;19.00;77.30;;;;;;5150743;27;20258;-54
2021/03/16 03:19:34;;;;;;;1999.90;999.90;;;18.80;81.40;;;;;;5150906;27;20174;-52
2021/03/16 03:22:24;;;;;;;1999.90;999.90;;;18.60;79.60;;;;;;5150798;27;20197;-55
2021/03/16 03:24:56;;;;;;;1999.90;999.90;;;18.60;81.30;;;;;;5151086;27;20162;-50
2021/03/16 03:27:40;;;;;;;1999.90;999.90;;;18.60;80.70;;;;;;5150966;27;20162;-56
2021/03/16 03:30:08;;;;;;;1999.90;999.90;;;18.60;80.30;;;;;;5150668;27;20166;-53
2021/03/16 03:32:37;;;;;;;1999.90;999.90;;;18.60;79.20;;;;;;5142088;27;20210;-54
2021/03/16 03:35:05;;;;;;;1999.90;999.90;;;18.80;77.70;;;;;;5136773;27;20174;-46
2021/03/16 03:37:33;;;;;;;1999.90;999.90;;;18.90;77.60;;;;;;5136807;27;20158;-54
2021/03/16 03:40:00;;;;;;;1999.90;999.90;;;18.80;78.80;;;;;;5136717;27;20166;-50
2021/03/16 03:42:28;;;;;;;1999.90;999.90;;;18.70;80.20;;;;;;5136683;27;20586;-53
2021/03/16 03:44:57;;;;;;;1999.90;999.90;;;18.70;78.80;;;;;;5136813;27;20566;-52
2021/03/16 03:47:24;;;;;;;1999.90;999.90;;;18.90;77.20;;;;;;5136667;27;20270;-54
2021/03/16 03:49:52;;;;;;;1999.90;999.90;;;18.80;78.40;;;;;;5136565;27;20196;-57
2021/03/16 03:52:20;;;;;;;1999.90;999.90;;;18.80;80.20;;;;;;5136534;27;20197;-57
2021/03/16 03:54:47;;;;;;;1999.90;999.90;;;18.60;82.30;;;;;;5136449;27;20564;-54
2021/03/16 03:57:15;;;;;;;1999.90;999.90;;;18.40;83.70;;;;;;5136367;27;20551;-54
2021/03/16 03:59:44;;;;;;;1999.90;999.90;;;18.20;85.50;;;;;;5136315;27;20201;-45
2021/03/16 04:02:13;;;;;;;1999.90;999.90;;;18.20;80.90;;;;;;5136329;27;20167;-57
2021/03/16 04:04:40;;;;;;;1999.90;999.90;;;18.30;84.30;;;;;;5136262;27;20173;-57
2021/03/16 04:07:08;;;;;;;1999.90;999.90;;;18.20;84.90;;;;;;5136157;27;20170;-43
2021/03/16 04:09:35;;;;;;;1999.90;999.90;;;18.10;85.40;;;;;;5136196;27;20163;-45
2021/03/16 04:12:03;;;;;;;1999.90;999.90;;;18.10;86.10;;;;;;5136148;27;20310;-57
2021/03/16 04:14:31;;;;;;;1999.90;999.90;;;18.10;85.50;;;;;;5136164;27;20169;-55
2021/03/16 04:16:59;;;;;;;1999.90;999.90;;;18.10;85.70;;;;;;5136155;27;20159;-55
2021/03/16 04:19:27;;;;;;;1999.90;999.90;;;18.10;85.20;;;;;;5136414;27;20550;-51
2021/03/16 04:21:55;;;;;;;1999.90;999.90;;;18.20;84.90;;;;;;5135906;27;20209;-44
2021/03/16 04:24:23;;;;;;;1999.90;999.90;;;18.10;86.40;;;;;;5135928;27;20612;-57
2021/03/16 04:26:50;;;;;;;1999.90;999.90;;;18.00;86.00;;;;;;5135880;27;20534;-55
2021/03/16 04:29:18;;;;;;;1999.90;999.90;;;18.00;85.80;;;;;;5135812;27;20164;-56
2021/03/16 04:31:45;;;;;;;1999.90;999.90;;;18.00;85.20;;;;;;5135418;27;20260;-56
2021/03/16 04:34:12;;;;;;;1999.90;999.90;;;18.10;84.80;;;;;;5135765;27;20216;-55
2021/03/16 04:36:39;;;;;;;1999.90;999.90;;;18.10;84.00;;;;;;5135707;27;20562;-57
2021/03/16 04:39:06;;;;;;;1999.90;999.90;;;18.20;83.10;;;;;;5135677;27;20678;-41
2021/03/16 04:41:34;;;;;;;1999.90;999.90;;;18.20;83.00;;;;;;5135431;27;20215;-58
2021/03/16 04:44:01;;;;;;;1999.90;999.90;;;18.20;83.20;;;;;;5134664;27;20158;-52
2021/03/16 04:46:28;;;;;;;1999.90;999.90;;;18.20;83.30;;;;;;5135582;27;20249;-57
2021/03/16 04:48:55;;;;;;;1999.90;999.90;;;18.40;80.10;;;;;;5135427;27;20170;-48
2021/03/16 04:51:23;;;;;;;1999.90;999.90;;;18.40;80.60;;;;;;5135292;27;20167;-41
2021/03/16 04:53:51;;;;;;;1999.90;999.90;;;18.40;80.80;;;;;;5135168;27;20182;-55
2021/03/16 04:56:18;;;;;;;1999.90;999.90;;;18.40;81.30;;;;;;5135299;27;20193;-57
2021/03/16 04:58:51;;;;;;;1999.90;999.90;;;18.30;82.40;;;;;;5135219;27;20640;-51
2021/03/16 05:01:19;;;;;;;1999.90;999.90;;;18.20;82.70;;;;;;5135126;27;20278;-52
2021/03/16 05:03:49;;;;;;;1999.90;999.90;;;18.10;83.50;;;;;;5134884;27;20197;-46
2021/03/16 05:06:17;;;;;;;1999.90;999.90;;;18.10;83.90;;;;;;5135048;27;20212;-43
2021/03/16 05:08:44;;;;;;;1999.90;999.90;;;18.10;84.10;;;;;;5134964;27;20544;-57
2021/03/16 05:11:17;;;;;;;1999.90;999.90;;;18.00;84.50;;;;;;5134942;27;20247;-52
2021/03/16 05:13:45;;;;;;;1999.90;999.90;;;18.00;84.70;;;;;;5134832;27;20163;-47
2021/03/16 05:16:18;;;;;;;1999.90;999.90;;;18.00;84.80;;;;;;5134736;27;20598;-49
2021/03/16 05:18:45;;;;;;;1999.90;999.90;;;17.90;84.80;;;;;;5134648;27;20155;-56
2021/03/16 05:21:12;;;;;;;1999.90;999.90;;;18.00;84.80;;;;;;5134538;27;20698;-56
2021/03/16 05:23:46;;;;;;;1999.90;999.90;;;18.00;84.30;;;;;;5134636;27;20173;-55
2021/03/16 05:26:13;;;;;;;1999.90;999.90;;;18.00;85.10;;;;;;5134610;27;20159;-56
2021/03/16 05:28:44;;;;;;;1999.90;999.90;;;18.00;83.60;;;;;;5134454;27;20181;-54
2021/03/16 05:31:11;;;;;;;1999.90;999.90;;;18.20;82.70;;;;;;5133850;27;20282;-56
2021/03/16 05:33:38;;;;;;;1999.90;999.90;;;18.40;82.40;;;;;;5134413;27;20681;-40
2021/03/16 05:36:06;;;;;;;1999.90;999.90;;;18.50;82.10;;;;;;5134267;27;20162;-41
2021/03/16 05:38:42;;;;;;;1999.90;999.90;;;18.60;81.40;;;;;;5134120;27;20162;-57
2021/03/16 05:41:13;;;;;;;1999.90;999.90;;;18.70;81.50;;;;;;5133991;27;20262;-52
2021/03/16 05:43:48;;;;;;;1999.90;999.90;;;18.70;81.70;;;;;;5134087;27;20161;-56
2021/03/16 05:46:19;;;;;;;1999.90;999.90;;;18.80;80.40;;;;;;5133935;27;20162;-42
2021/03/16 05:48:51;;;;;;;1999.90;999.90;;;19.00;78.90;;;;;;5134033;27;20233;-57
2021/03/16 05:51:19;;;;;;;1999.90;999.90;;;19.20;78.00;;;;;;5133916;27;20254;-58
2021/03/16 05:54:08;;;;;;;1999.90;999.90;;;19.40;76.80;;;;;;5135256;27;20166;-44
2021/03/16 05:56:40;;;;;;;1999.90;999.90;;;19.50;76.90;;;;;;5124696;27;20167;-41
2021/03/16 05:59:07;;;;;;;1999.90;999.90;;;19.60;77.10;;;;;;5133805;27;20162;-42
2021/03/16 06:01:38;;;;;;;1999.90;999.90;;;19.60;77.20;;;;;;5131681;27;20230;-41
2021/03/16 06:04:08;;;;;;;1999.90;999.90;;;19.70;77.60;;;;;;5133903;27;20601;-39
2021/03/16 06:06:38;;;;;;;1999.90;999.90;;;19.80;76.90;;;;;;5133797;27;20162;-40
2021/03/16 06:09:06;;;;;;;1999.90;999.90;;;19.90;76.00;;;;;;5132504;27;20260;-45
2021/03/16 06:11:34;;;;;;;1999.90;999.90;;;20.10;74.00;;;;;;5137181;27;20170;-40
2021/03/16 06:14:00;;;;;;;1999.90;999.90;;;20.20;72.30;;;;;;5136300;27;20223;-41
2021/03/16 06:16:27;;;;;;;1999.90;999.90;;;20.40;71.00;;;;;;5133603;27;20651;-43
2021/03/16 06:18:54;;;;;;;1999.90;999.90;;;20.50;70.60;;;;;;5129334;28;20592;-49
2021/03/16 06:21:23;;;;;;;1999.90;999.90;;;20.70;68.80;;;;;;5149021;27;20258;-45
2021/03/16 06:23:59;;;;;;;1999.90;999.90;;;20.80;68.70;;;;;;5145544;27;20526;-43
2021/03/16 06:26:27;;;;;;;1999.90;999.90;;;21.00;67.50;;;;;;5137092;27;20327;-47
2021/03/16 06:29:05;;;;;;;1999.90;999.90;;;21.10;66.70;;;;;;5134444;27;20177;-52
2021/03/16 06:31:32;;;;;;;1999.90;999.90;;;21.30;66.30;;;;;;5152447;27;20201;-47
2021/03/16 06:33:59;;;;;;;1999.90;999.90;;;21.40;65.10;;;;;;5152115;27;21005;-45
2021/03/16 06:36:27;;;;;;;1999.90;999.90;;;21.40;64.90;;;;;;5140520;27;20255;-49
2021/03/16 06:38:55;;;;;;;1999.90;999.90;;;21.50;65.50;;;;;;5133976;27;20171;-47
2021/03/16 06:41:24;;;;;;;1999.90;999.90;;;21.60;64.80;;;;;;5134608;27;20201;-50
2021/03/16 06:44:02;;;;;;;1999.90;999.90;;;21.80;63.60;;;;;;5151620;27;20201;-47
2021/03/16 06:46:33;;;;;;;1999.90;999.90;;;21.80;63.90;;;;;;5143184;27;20178;-45
2021/03/16 06:49:00;;;;;;;1999.90;999.90;;;22.00;62.40;;;;;;5132887;27;20158;-45
2021/03/16 06:51:29;;;;;;;1999.90;999.90;;;22.00;61.70;;;;;;5132591;28;20538;-54
2021/03/16 06:54:20;;;;;;;1999.90;999.90;;;22.10;61.60;;;;;;5132606;28;20224;-52
2021/03/16 06:56:57;;;;;;;1999.90;999.90;;;22.20;62.10;;;;;;5132892;28;20198;-52
2021/03/16 06:59:29;;;;;;;1999.90;999.90;;;22.40;62.70;;;;;;5132757;28;20263;-48
2021/03/16 07:01:56;;;;;;;1999.90;999.90;;;22.70;62.90;;;;;;5133693;27;20281;-56
2021/03/16 07:04:31;;;;;;;1999.90;999.90;;;22.90;61.50;;;;;;5132628;27;20163;-51
2021/03/16 07:06:59;;;;;;;1999.90;999.90;;;23.00;60.70;;;;;;5145713;27;20184;-45
2021/03/16 07:09:26;;;;;;;1999.90;999.90;;;23.10;59.70;;;;;;5137191;27;20174;-47
2021/03/16 07:11:56;;;;;;;1999.90;999.90;;;23.30;59.60;;;;;;5132806;27;20687;-49
2021/03/16 07:14:23;;;;;;;1999.90;999.90;;;23.40;58.60;;;;;;5140647;27;20257;-50
2021/03/16 07:16:51;;;;;;;1999.90;999.90;;;23.60;58.00;;;;;;5138703;27;20178;-57
2021/03/16 07:19:20;;;;;;;1999.90;999.90;;;23.60;58.80;;;;;;5136312;27;20641;-61
2021/03/16 07:21:54;;;;;;;1999.90;999.90;;;23.80;58.60;;;;;;5136453;27;20243;-50
2021/03/16 07:24:28;;;;;;;1999.90;999.90;;;23.80;57.40;;;;;;5137350;27;20166;-46
2021/03/16 07:26:56;;;;;;;1999.90;999.90;;;23.50;55.20;;;;;;5125179;27;20628;-44
2021/03/16 07:29:24;;;;;;;1999.90;999.90;;;23.30;56.50;;;;;;5129948;27;20235;-57
2021/03/16 07:31:52;;;;;;;1999.90;999.90;;;23.60;56.70;;;;;;5127500;27;20206;-56
2021/03/16 07:34:20;;;;;;;1999.90;999.90;;;23.80;56.40;;;;;;5148518;27;20254;-65
2021/03/16 07:36:50;;;;;;;1999.90;999.90;;;24.00;55.70;;;;;;5151894;27;20193;-58
2021/03/16 07:39:19;;;;;;;1999.90;999.90;;;24.10;54.90;;;;;;5147898;27;20640;-59
2021/03/16 07:41:47;;;;;;;1999.90;999.90;;;24.20;54.90;;;;;;5135890;27;20194;-59
2021/03/16 07:44:16;;;;;;;1999.90;999.90;;;24.30;53.40;;;;;;5137276;27;20175;-48
2021/03/16 07:46:56;;;;;;;1999.90;999.90;;;24.40;53.40;;;;;;5117770;27;20174;-49
2021/03/16 07:49:39;;;;;;;1999.90;999.90;;;24.40;53.60;;;;;;5136115;27;20198;-43
2021/03/16 07:52:26;;;;;;;1999.90;999.90;;;24.50;53.00;;;;;;5154428;27;20266;-44
2021/03/16 07:54:53;;;;;;;1999.90;999.90;;;24.80;52.70;;;;;;5154861;27;20165;-57
2021/03/16 07:57:31;;;;;;;1999.90;999.90;;;25.10;51.70;;;;;;5139737;27;20226;-46
2021/03/16 08:00:00;;;;;;;1999.90;999.90;;;24.90;49.50;;;;;;5147038;27;20177;-43
2021/03/16 08:02:29;;;;;;;1999.90;999.90;;;25.30;48.80;;;;;;5147969;27;20193;-50
2021/03/16 08:04:56;;;;;;;1999.90;999.90;;;25.50;49.70;;;;;;5127615;27;20167;-55
2021/03/16 08:07:31;;;;;;;1999.90;999.90;;;25.90;47.80;;;;;;5139867;27;20209;-50
2021/03/16 08:09:58;;;;;;;1999.90;999.90;;;26.10;46.20;;;;;;5135582;27;20157;-58
2021/03/16 08:12:24;;;;;;;1999.90;999.90;;;26.70;45.20;;;;;;5135452;27;20166;-48
2021/03/16 08:14:51;;;;;;;1999.90;999.90;;;27.20;44.30;;;;;;5136506;27;20273;-54
2021/03/16 08:17:32;;;;;;;1999.90;999.90;;;27.90;43.60;;;;;;5146954;27;20171;-54
2021/03/16 08:20:02;;;;;;;1999.90;999.90;;;26.90;44.30;;;;;;5116668;27;20175;-53
2021/03/16 08:22:29;;;;;;;1999.90;999.90;;;26.60;44.60;;;;;;5135074;27;20190;-47
2021/03/16 08:25:04;;;;;;;1999.90;999.90;;;26.40;45.30;;;;;;5154381;27;20449;-44
2021/03/16 08:27:34;;;;;;;1999.90;999.90;;;26.20;45.30;;;;;;5156021;27;20169;-46
2021/03/16 08:30:05;;;;;;;1999.90;999.90;;;26.70;44.30;;;;;;5145937;27;20174;-45
2021/03/16 08:32:33;;;;;;;1999.90;999.90;;;26.70;43.60;;;;;;5136595;27;20619;-49
2021/03/16 08:35:00;;;;;;;1999.90;999.90;;;27.30;43.00;;;;;;5135050;27;20202;-51
2021/03/16 08:37:27;;;;;;;1999.90;999.90;;;27.60;43.70;;;;;;5139114;27;20165;-58
2021/03/16 08:39:56;;;;;;;1999.90;999.90;;;27.90;43.60;;;;;;5140903;27;20298;-48
2021/03/16 08:42:28;;;;;;;1999.90;999.90;;;28.30;43.00;;;;;;5135020;27;20311;-51
2021/03/16 08:44:57;;;;;;;1999.90;999.90;;;28.30;41.10;;;;;;5136241;27;20513;-44
2021/03/16 08:47:25;;;;;;;1999.90;999.90;;;27.60;41.20;;;;;;5143874;27;20170;-46
2021/03/16 08:49:55;;;;;;;1999.90;999.90;;;27.80;41.90;;;;;;5155770;27;20172;-45
2021/03/16 08:52:23;;;;;;;1999.90;999.90;;;28.00;41.00;;;;;;5155528;27;20218;-46
2021/03/16 08:54:51;;;;;;;1999.90;999.90;;;27.00;42.60;;;;;;5155568;27;20218;-57
2021/03/16 08:57:30;;;;;;;1999.90;999.90;;;27.20;42.40;;;;;;5143527;27;20162;-50
2021/03/16 09:00:00;;;;;;;1999.90;999.90;;;27.80;43.50;;;;;;5134774;27;20249;-51
2021/03/16 09:02:29;;;;;;;1999.90;999.90;;;28.80;40.30;;;;;;5137618;27;20154;-56
2021/03/16 09:04:57;;;;;;;1999.90;999.90;;;28.50;40.40;;;;;;5143685;27;20588;-53
2021/03/16 09:07:36;;;;;;;1999.90;999.90;;;27.70;40.70;;;;;;5145515;27;20559;-50
2021/03/16 09:10:17;;;;;;;1999.90;999.90;;;27.60;41.40;;;;;;5154916;27;20665;-49
2021/03/16 09:12:46;;;;;;;1999.90;999.90;;;28.40;40.30;;;;;;5113940;28;20195;-56
2021/03/16 09:15:36;;;;;;;1999.90;999.90;;;28.50;40.30;;;;;;5146102;27;20169;-58
2021/03/16 09:18:06;;;;;;;1999.90;999.90;;;28.80;39.40;;;;;;5129708;27;20546;-52
2021/03/16 09:20:36;;;;;;;1999.90;999.90;;;28.50;40.50;;;;;;5134113;27;20197;-51
2021/03/16 09:23:09;;;;;;;1999.90;999.90;;;29.30;40.10;;;;;;5134159;27;20572;-49
2021/03/16 09:25:43;;;;;;;1999.90;999.90;;;28.20;40.20;;;;;;5134348;27;20187;-52
2021/03/16 09:28:12;;;;;;;1999.90;999.90;;;28.20;40.80;;;;;;5134257;27;20171;-49
2021/03/16 09:30:59;;;;;;;1999.90;999.90;;;28.30;40.60;;;;;;5134397;27;20640;-48
2021/03/16 09:33:26;;;;;;;1999.90;999.90;;;28.70;39.50;;;;;;5134793;27;20167;-46
2021/03/16 09:36:01;;;;;;;1999.90;999.90;;;28.50;40.00;;;;;;5134044;27;20166;-46
2021/03/16 09:38:28;;;;;;;1999.90;999.90;;;27.50;41.40;;;;;;5137923;27;20161;-45
2021/03/16 09:40:56;;;;;;;1999.90;999.90;;;27.50;42.00;;;;;;5133888;27;20206;-61
2021/03/16 09:43:25;;;;;;;1999.90;999.90;;;27.70;41.90;;;;;;5133957;27;20577;-60
2021/03/16 09:45:54;;;;;;;1999.90;999.90;;;28.50;41.70;;;;;;5141065;27;20230;-58
2021/03/16 09:48:21;;;;;;;1999.90;999.90;;;29.00;39.50;;;;;;5138584;27;20170;-55
2021/03/16 09:50:49;;;;;;;1999.90;999.90;;;28.80;40.30;;;;;;5134055;27;20493;-56
2021/03/16 09:53:19;;;;;;;1999.90;999.90;;;29.00;39.90;;;;;;5134465;27;20323;-45
2021/03/16 09:55:56;;;;;;;1999.90;999.90;;;29.30;39.30;;;;;;5150878;27;20250;-55
2021/03/16 09:58:23;;;;;;;1999.90;999.90;;;28.70;40.00;;;;;;5145048;27;20154;-58
2021/03/16 10:00:51;;;;;;;1999.90;999.90;;;28.10;41.10;;;;;;5133507;27;20206;-46
2021/03/16 10:03:19;;;;;;;1999.90;999.90;;;27.60;41.90;;;;;;5137175;27;20202;-49
2021/03/16 10:05:47;;;;;;;1999.90;999.90;;;27.30;43.10;;;;;;5133372;27;20171;-48
2021/03/16 10:08:27;;;;;;;1999.90;999.90;;;27.30;42.80;;;;;;5133309;27;20194;-53
2021/03/16 10:10:57;;;;;;;1999.90;999.90;;;27.10;43.20;;;;;;5118110;28;20323;-49
2021/03/16 10:13:38;;;;;;;1999.90;999.90;;;27.70;42.60;;;;;;5133366;27;20159;-50
2021/03/16 10:16:13;;;;;;;1999.90;999.90;;;28.10;41.90;;;;;;5133138;27;20189;-60
2021/03/16 10:18:49;;;;;;;1999.90;999.90;;;29.00;40.40;;;;;;5132817;27;20178;-58
2021/03/16 10:21:27;;;;;;;1999.90;999.90;;;29.20;39.40;;;;;;5133646;28;20330;-59
2021/03/16 10:24:04;;;;;;;1999.90;999.90;;;28.40;41.50;;;;;;5133197;28;20153;-56
2021/03/16 10:26:32;;;;;;;1999.90;999.90;;;28.80;40.40;;;;;;5140923;27;20172;-48
2021/03/16 10:29:10;;;;;;;1999.90;999.90;;;28.00;41.00;;;;;;5154123;27;20620;-52
2021/03/16 10:31:37;;;;;;;1999.90;999.90;;;27.70;42.10;;;;;;5115749;27;20218;-57
2021/03/16 10:34:05;;;;;;;1999.90;999.90;;;28.30;41.60;;;;;;5123338;28;20196;-59
2021/03/16 10:36:35;;;;;;;1999.90;999.90;;;28.50;41.60;;;;;;5134469;27;20722;-51
2021/03/16 10:39:03;;;;;;;1999.90;999.90;;;29.10;40.50;;;;;;5133189;28;20245;-48
2021/03/16 10:41:30;;;;;;;1999.90;999.90;;;29.30;39.20;;;;;;5133211;27;20202;-50
2021/03/16 10:43:57;;;;;;;1999.90;999.90;;;30.00;38.70;;;;;;5136902;27;20166;-57
2021/03/16 10:46:24;;;;;;;1999.90;999.90;;;30.40;37.40;;;;;;5139112;27;20171;-49
2021/03/16 10:48:51;;;;;;;1999.90;999.90;;;30.30;37.80;;;;;;5137498;27;20651;-56
2021/03/16 10:51:18;;;;;;;1999.90;999.90;;;30.60;37.50;;;;;;5120992;27;20179;-51
2021/03/16 10:53:44;;;;;;;1999.90;999.90;;;29.90;37.80;;;;;;5139701;27;20670;-59
2021/03/16 10:56:11;;;;;;;1999.90;999.90;;;29.10;38.70;;;;;;5146658;27;20202;-47
2021/03/16 10:58:38;;;;;;;1999.90;999.90;;;29.20;39.50;;;;;;5155722;27;20173;-52
2021/03/16 11:01:05;;;;;;;1999.90;999.90;;;28.80;40.30;;;;;;5144040;27;20206;-58
2021/03/16 11:03:35;;;;;;;1999.90;999.90;;;28.70;41.00;;;;;;5137043;27;20173;-54
2021/03/16 11:06:02;;;;;;;1999.90;999.90;;;29.10;42.10;;;;;;5136941;27;20170;-51
2021/03/16 11:08:28;;;;;;;1999.90;999.90;;;29.80;40.00;;;;;;5156917;27;20166;-58
2021/03/16 11:10:55;;;;;;;1999.90;999.90;;;29.40;39.60;;;;;;5145692;27;20166;-55
2021/03/16 11:13:22;;;;;;;1999.90;999.90;;;29.30;39.50;;;;;;5157473;27;20681;-50
2021/03/16 11:15:49;;;;;;;1999.90;999.90;;;29.10;39.50;;;;;;5144019;27;20169;-51
2021/03/16 11:18:17;;;;;;;1999.90;999.90;;;29.30;39.60;;;;;;5136811;27;20174;-63
2021/03/16 11:20:44;;;;;;;1999.90;999.90;;;29.30;39.00;;;;;;5140555;27;20214;-51
2021/03/16 11:23:10;;;;;;;1999.90;999.90;;;29.10;39.60;;;;;;5146882;27;20254;-49
2021/03/16 11:25:37;;;;;;;1999.90;999.90;;;29.00;41.20;;;;;;5156999;27;20247;-48
2021/03/16 11:28:04;;;;;;;1999.90;999.90;;;29.20;41.40;;;;;;5155469;27;20572;-53
2021/03/16 11:30:31;;;;;;;1999.90;999.90;;;29.30;41.10;;;;;;5156898;27;20532;-53
2021/03/16 11:32:59;;;;;;;1999.90;999.90;;;29.10;40.80;;;;;;5136474;27;20185;-59
2021/03/16 11:35:25;;;;;;;1999.90;999.90;;;29.20;41.20;;;;;;5157461;27;20162;-61
2021/03/16 11:37:52;;;;;;;1999.90;999.90;;;29.40;41.50;;;;;;5157333;27;20174;-66
2021/03/16 11:40:20;;;;;;;1999.90;999.90;;;29.60;39.10;;;;;;5156846;27;20630;-52
2021/03/16 11:42:47;;;;;;;1999.90;999.90;;;29.40;39.60;;;;;;5139236;27;20536;-59
2021/03/16 11:45:17;;;;;;;1999.90;999.90;;;28.80;40.80;;;;;;5151450;27;20627;-52
2021/03/16 11:47:44;;;;;;;1999.90;999.90;;;29.20;41.00;;;;;;5154538;27;20594;-58
2021/03/16 11:50:11;;;;;;;1999.90;999.90;;;29.50;39.70;;;;;;5156990;27;20212;-50
2021/03/16 11:52:38;;;;;;;1999.90;999.90;;;29.50;39.80;;;;;;5156460;27;20181;-52
2021/03/16 11:55:06;;;;;;;1999.90;999.90;;;29.50;41.30;;;;;;5140492;27;20640;-58
2021/03/16 11:57:33;;;;;;;1999.90;999.90;;;29.00;41.10;;;;;;5115939;28;20633;-60
2021/03/16 12:00:00;;;;;;;1999.90;999.90;;;28.80;42.00;;;;;;5115421;28;20155;-56
2021/03/16 12:02:27;;;;;;;1999.90;999.90;;;29.00;42.00;;;;;;5113353;27;20186;-56
2021/03/16 12:04:53;;;;;;;1999.90;999.90;;;29.20;41.60;;;;;;5136008;27;20166;-54
2021/03/16 12:07:20;;;;;;;1999.90;999.90;;;29.40;41.90;;;;;;5144730;27;20174;-60
2021/03/16 12:09:47;;;;;;;1999.90;999.90;;;29.60;40.80;;;;;;5140945;27;20163;-59
2021/03/16 12:12:14;;;;;;;1999.90;999.90;;;29.60;40.90;;;;;;5135785;27;20219;-50
2021/03/16 12:14:41;;;;;;;1999.90;999.90;;;28.90;42.30;;;;;;5135747;27;20165;-57
2021/03/16 12:17:14;;;;;;;1999.90;999.90;;;28.90;42.60;;;;;;5135867;27;20174;-59
2021/03/16 12:19:41;;;;;;;1999.90;999.90;;;29.00;41.70;;;;;;5135454;27;20159;-54
2021/03/16 12:22:08;;;;;;;1999.90;999.90;;;29.00;41.70;;;;;;5135363;27;20195;-54
2021/03/16 12:24:35;;;;;;;1999.90;999.90;;;29.20;41.90;;;;;;5135667;27;20169;-53
2021/03/16 12:27:02;;;;;;;1999.90;999.90;;;29.40;41.60;;;;;;5135100;27;20167;-63
2021/03/16 12:29:28;;;;;;;1999.90;999.90;;;29.60;41.80;;;;;;5139183;27;20182;-59
2021/03/16 12:31:55;;;;;;;1999.90;999.90;;;29.50;42.00;;;;;;5135120;27;20221;-53